Hauptseite
METAR-TAF:

METAR-TAF

Flughäfen :

Pittsburgh International Airport

Pittsburgh, Pennsylvania, Vereinigte Staaten

Breite: 40-30-14N, Länge: 080-15-59W, Höhe: 366 m

Beobachtung

Neuester Wetterbericht von vor 1 Stunde und 1 Minuten, um 19:51 UTC
Wind 7 kt aus West/Nordwest
Temperatur 9°C
Luftfeuchtigkeit 43%
Luftdruck 1030 hPa
Sichtweite: 16.1 km
Leicht bewölkt in der Höhe von 3500 ft

METAR: KPIT 181951Z 29007KT 10SM FEW035 09/M03 A3042 RMK AO2 SLP317 T00941033

Zeit: 16:52 (20:52 UTC)

Prognose

Neuester Wetterbericht von vor 3 Stunden und 30 Minuten, um 17:22 UTC
Gültige Prognose vom 18 um 18 UTC bis 19 um 24 UTC
Wind 8 kt aus West/Nordwest
Sichtweite: 10 km
Himmel klar
Ab 19 um 0000 UTC
Wind 4 kt aus West/Südwest
Sichtweite: 10 km
Himmel klar

TAF: KPIT 181722Z 1818/1924 29008KT P6SM SKC FM190000 24004KT P6SM SKC

Wetterbeobachtungen und Prognosen von mehr als 4000 Flughäfen (METAR und TAF Bericht).

Die verfügbaren Stationen werden durch gelbe und rote Markierungen auf der Karte dargestellt.

Führen Sie die Maus auf sie, um den Namen der Station zu sehen.

Darauf klicken, um die Beobachtung von Wetterbeobachtungen und Prognosen zu sehen.

Um die Karte zu ändern : klicken Sie auf den grünen Tasten mit einem schwarzen Kreuz Zum Vergrößern, auf den grünen Button mit einem Gedankenstrich zu verkleinern, oder auf die grünen Pfeile für benachbarte Karten.


METAR-TAF: